Time;durP1;ratioP1;P1;durP2;ratioP2;P2;SDS_P1;SDS_P2;PMS_P1;PMS_P2;Temp;Humidity;BMP_temperature;BMP_pressure;BME280_temperature;BME280_humidity;BME280_pressure;Samples;Min_cycle;Max_cycle;Signal;HPM_P1;HPM_P2
2021/12/04 00:02:17;;;;;;;1.03;0.40;;;5.30;89.90;;;;;;5015785;28;20022;-84
2021/12/04 00:04:46;;;;;;;1.00;0.40;;;5.30;90.10;;;;;;5031370;28;20025;-84
2021/12/04 00:07:12;;;;;;;1.50;0.43;;;5.30;90.20;;;;;;5022834;28;20585;-84
2021/12/04 00:09:38;;;;;;;1.53;0.57;;;5.30;90.30;;;;;;5023859;28;20132;-84
2021/12/04 00:12:06;;;;;;;1.20;0.30;;;5.30;90.50;;;;;;5029613;28;20049;-84
2021/12/04 00:14:34;;;;;;;1.07;0.60;;;5.40;90.40;;;;;;5034421;28;20028;-84
2021/12/04 00:17:01;;;;;;;1.47;0.50;;;5.30;90.30;;;;;;5021010;28;20117;-84
2021/12/04 00:19:27;;;;;;;0.77;0.40;;;5.30;90.10;;;;;;5026903;28;20538;-84
2021/12/04 00:21:54;;;;;;;2.10;0.60;;;5.40;89.90;;;;;;5027840;28;20108;-84
2021/12/04 00:24:20;;;;;;;1.57;0.67;;;5.30;89.40;;;;;;5018894;28;20528;-83
2021/12/04 00:26:48;;;;;;;3.60;0.60;;;5.30;88.70;;;;;;5002420;28;20021;-84
2021/12/04 00:29:14;;;;;;;2.87;0.80;;;5.30;88.00;;;;;;5027428;28;20033;-83
2021/12/04 00:31:46;;;;;;;1.67;0.57;;;5.30;86.10;;;;;;5014959;28;20034;-83
2021/12/04 00:34:11;;;;;;;;;;;5.30;86.40;;;;;;5031846;28;20014;-84
2021/12/04 00:50:00;;;;;;;1.33;0.63;;;5.30;91.00;;;;;;5029396;28;20028;-84
2021/12/04 00:52:26;;;;;;;5.43;0.70;;;5.30;91.70;;;;;;5017175;28;20026;-83
2021/12/04 00:54:52;;;;;;;1.17;0.50;;;5.30;92.10;;;;;;5018949;28;20052;-84
2021/12/04 00:57:17;;;;;;;1.73;0.90;;;5.30;92.50;;;;;;5026766;28;20033;-84
2021/12/04 00:59:43;;;;;;;0.73;0.60;;;5.30;93.40;;;;;;5020951;28;20442;-84
2021/12/04 01:02:09;;;;;;;3.33;0.80;;;5.20;94.70;;;;;;5030424;28;20369;-83
2021/12/04 01:04:35;;;;;;;1.83;0.70;;;5.30;95.50;;;;;;5017519;28;20029;-83
2021/12/04 01:07:01;;;;;;;2.07;0.60;;;5.20;96.30;;;;;;5029678;28;20022;-84
2021/12/04 01:09:27;;;;;;;0.63;0.43;;;5.10;97.60;;;;;;5021551;28;20044;-83
2021/12/04 01:11:54;;;;;;;3.00;0.60;;;5.10;98.40;;;;;;5021815;28;20076;-84
2021/12/04 01:14:23;;;;;;;1.13;0.50;;;5.10;99.10;;;;;;5030682;28;20097;-82
2021/12/04 01:16:50;;;;;;;0.53;0.43;;;5.00;99.60;;;;;;5003879;28;20052;-84
2021/12/04 01:19:18;;;;;;;2.50;0.50;;;5.00;99.90;;;;;;5027720;28;20029;-84
2021/12/04 01:21:45;;;;;;;0.87;0.50;;;5.00;99.90;;;;;;5025352;28;20619;-84
2021/12/04 01:24:11;;;;;;;1.47;0.30;;;4.90;99.90;;;;;;5018789;28;20022;-83
2021/12/04 01:26:37;;;;;;;1.53;0.50;;;4.90;99.90;;;;;;5013703;28;20083;-83
2021/12/04 01:29:03;;;;;;;1.03;0.50;;;4.90;99.90;;;;;;5014240;28;20060;-83
2021/12/04 01:31:28;;;;;;;1.23;0.50;;;5.00;99.90;;;;;;5022369;28;20049;-83
2021/12/04 01:33:54;;;;;;;1.83;0.50;;;5.00;99.90;;;;;;5022078;28;20060;-83
2021/12/04 01:36:20;;;;;;;1.53;0.50;;;4.90;99.90;;;;;;5030309;28;20022;-84
2021/12/04 01:38:46;;;;;;;1.13;0.43;;;4.90;99.90;;;;;;4994056;28;20038;-83
2021/12/04 01:41:11;;;;;;;0.90;0.50;;;4.80;99.90;;;;;;4995157;28;20113;-83
2021/12/04 01:43:38;;;;;;;1.10;0.50;;;4.90;99.90;;;;;;5015704;28;20442;-83
2021/12/04 01:46:04;;;;;;;3.00;0.73;;;4.90;99.90;;;;;;5019469;28;20022;-84
2021/12/04 01:48:30;;;;;;;1.07;0.73;;;4.90;99.90;;;;;;5030823;28;20104;-83
2021/12/04 01:50:56;;;;;;;0.93;0.47;;;4.80;99.90;;;;;;5018453;28;20103;-84
2021/12/04 01:53:23;;;;;;;0.47;0.40;;;4.90;99.90;;;;;;5025221;28;20032;-84
2021/12/04 01:55:54;;;;;;;1.27;0.50;;;4.80;99.90;;;;;;5025303;28;20084;-84
2021/12/04 01:58:20;;;;;;;2.90;0.50;;;4.80;99.90;;;;;;5017058;28;20034;-84
2021/12/04 02:00:47;;;;;;;1.57;0.60;;;4.90;99.90;;;;;;5009580;28;20033;-84
2021/12/04 02:03:13;;;;;;;1.00;0.63;;;4.90;99.90;;;;;;5026518;28;20021;-84
2021/12/04 02:05:41;;;;;;;1.13;0.50;;;4.90;99.90;;;;;;5013133;28;20121;-83
2021/12/04 02:08:08;;;;;;;1.73;0.70;;;4.90;99.90;;;;;;5028877;28;20044;-83
2021/12/04 02:10:35;;;;;;;1.63;0.67;;;4.90;99.90;;;;;;5015807;28;20042;-84
2021/12/04 02:13:01;;;;;;;2.30;0.73;;;4.90;99.90;;;;;;5028828;28;20010;-83
2021/12/04 02:15:28;;;;;;;2.37;0.60;;;4.90;99.90;;;;;;5022159;28;20018;-83
2021/12/04 02:17:54;;;;;;;1.33;0.60;;;4.90;99.90;;;;;;5021368;28;20028;-83
2021/12/04 02:20:23;;;;;;;1.63;0.60;;;4.90;99.90;;;;;;5029454;28;20025;-83
2021/12/04 02:22:49;;;;;;;1.67;0.70;;;4.90;99.90;;;;;;5016611;28;20017;-84
2021/12/04 02:25:16;;;;;;;2.00;0.90;;;4.90;99.90;;;;;;5030050;28;20117;-84
2021/12/04 02:27:41;;;;;;;0.93;0.53;;;4.90;99.90;;;;;;5021680;28;20033;-83
2021/12/04 02:30:10;;;;;;;2.70;1.00;;;4.90;99.90;;;;;;5013504;28;20019;-83
2021/12/04 02:32:36;;;;;;;1.03;0.60;;;4.90;99.90;;;;;;5027843;28;20029;-83
2021/12/04 02:35:03;;;;;;;1.50;0.80;;;4.90;99.90;;;;;;5018948;28;20021;-84
2021/12/04 02:37:29;;;;;;;0.97;0.60;;;5.00;99.90;;;;;;5022889;28;20030;-84
2021/12/04 02:39:59;;;;;;;2.37;0.90;;;5.00;99.90;;;;;;5025923;28;20033;-83
2021/12/04 02:42:29;;;;;;;1.30;0.80;;;5.00;99.90;;;;;;5016534;28;20033;-84
2021/12/04 02:44:56;;;;;;;1.40;0.60;;;5.00;99.90;;;;;;5028034;28;20021;-84
2021/12/04 02:47:22;;;;;;;1.43;0.80;;;5.00;99.90;;;;;;5021374;28;20385;-84
2021/12/04 02:49:48;;;;;;;1.00;0.70;;;4.90;99.90;;;;;;5020114;28;20116;-83
2021/12/04 02:52:14;;;;;;;3.30;1.30;;;4.90;99.90;;;;;;5029317;28;20040;-84
2021/12/04 02:54:40;;;;;;;4.93;1.40;;;4.90;99.90;;;;;;5015689;28;20026;-84
2021/12/04 02:57:08;;;;;;;2.57;0.90;;;4.90;99.90;;;;;;5026455;28;20053;-84
2021/12/04 02:59:35;;;;;;;3.33;1.23;;;4.90;99.90;;;;;;5016333;28;20034;-83
2021/12/04 03:02:01;;;;;;;2.50;1.20;;;4.90;99.90;;;;;;5020485;28;20119;-84
2021/12/04 03:04:28;;;;;;;2.60;1.10;;;4.80;99.90;;;;;;5016173;28;20049;-83
2021/12/04 03:06:54;;;;;;;2.60;1.07;;;4.80;99.90;;;;;;5028927;28;20148;-84
2021/12/04 03:09:20;;;;;;;2.87;1.00;;;4.80;99.90;;;;;;5020450;28;20367;-84
2021/12/04 03:11:46;;;;;;;3.10;1.00;;;4.80;99.90;;;;;;5020419;28;20029;-84
2021/12/04 03:14:13;;;;;;;2.37;1.30;;;4.70;99.90;;;;;;5028201;28;20476;-83
2021/12/04 03:16:40;;;;;;;3.67;1.33;;;4.70;99.90;;;;;;5013244;28;20108;-84
2021/12/04 03:19:07;;;;;;;1.23;0.93;;;4.70;99.90;;;;;;5018876;28;20508;-84
2021/12/04 03:21:34;;;;;;;2.40;1.40;;;4.80;99.90;;;;;;5021980;28;20072;-83
2021/12/04 03:24:03;;;;;;;4.73;1.40;;;4.70;99.90;;;;;;5025814;28;20024;-83
2021/12/04 03:26:30;;;;;;;2.13;1.20;;;4.70;99.90;;;;;;5028470;28;20076;-83
2021/12/04 03:28:57;;;;;;;2.60;1.10;;;4.70;99.90;;;;;;5018234;28;20022;-84
2021/12/04 03:42:21;;;;;;;2.87;1.10;;;4.60;99.90;;;;;;5033458;28;20036;-83
2021/12/04 03:44:47;;;;;;;3.10;1.10;;;4.60;99.90;;;;;;5019201;28;20025;-83
2021/12/04 03:47:13;;;;;;;2.80;1.00;;;4.60;99.90;;;;;;5029862;28;20033;-84
2021/12/04 03:49:39;;;;;;;1.47;0.97;;;4.60;99.90;;;;;;5027130;28;20114;-83
2021/12/04 03:52:06;;;;;;;1.43;1.00;;;4.60;99.90;;;;;;5036918;28;20025;-84
2021/12/04 03:54:32;;;;;;;1.10;0.90;;;4.60;99.90;;;;;;5018920;28;20013;-83
2021/12/04 03:57:04;;;;;;;2.40;1.10;;;4.60;99.90;;;;;;5030691;28;20056;-84
2021/12/04 03:59:43;;;;;;;2.60;0.95;;;4.60;99.90;;;;;;5019917;28;20026;-82
2021/12/04 04:02:10;;;;;;;2.47;1.03;;;4.60;99.90;;;;;;5025836;28;20517;-83
2021/12/04 04:04:36;;;;;;;1.83;0.97;;;4.50;99.90;;;;;;5018714;28;20026;-83
2021/12/04 04:07:02;;;;;;;1.73;0.90;;;4.50;99.90;;;;;;5029995;28;20117;-83
2021/12/04 04:09:28;;;;;;;3.83;1.20;;;4.50;99.90;;;;;;5024021;28;20064;-83
2021/12/04 04:11:55;;;;;;;4.30;0.90;;;4.40;99.90;;;;;;5022500;28;20022;-83
2021/12/04 04:14:22;;;;;;;1.80;1.27;;;4.50;99.90;;;;;;5032087;28;20386;-83
2021/12/04 04:16:48;;;;;;;2.07;0.97;;;4.40;99.90;;;;;;5002714;28;20029;-83
2021/12/04 04:19:13;;;;;;;3.23;1.10;;;4.40;99.90;;;;;;5028329;28;20080;-83
2021/12/04 04:21:41;;;;;;;3.80;1.30;;;4.30;99.90;;;;;;5025466;28;20036;-83
2021/12/04 04:24:14;;;;;;;1.70;1.20;;;4.40;99.90;;;;;;5020781;28;20525;-84
2021/12/04 04:26:41;;;;;;;3.00;1.33;;;4.40;99.90;;;;;;5017780;28;20026;-84
2021/12/04 04:29:07;;;;;;;2.27;1.17;;;4.50;99.90;;;;;;5029979;28;20021;-83
2021/12/04 04:31:34;;;;;;;1.90;1.10;;;4.50;99.90;;;;;;5024510;28;20454;-83
2021/12/04 04:34:03;;;;;;;2.70;1.40;;;4.50;99.90;;;;;;5022538;28;20096;-83
2021/12/04 05:00:46;;;;;;;2.00;1.40;;;4.30;99.90;;;;;;5014260;28;20030;-83
2021/12/04 05:11:14;;;;;;;3.63;2.00;;;4.30;99.90;;;;;;5028575;28;20044;-83
2021/12/04 05:13:41;;;;;;;3.37;2.13;;;4.20;99.90;;;;;;5025744;28;20029;-83
2021/12/04 05:16:22;;;;;;;5.13;2.00;;;4.30;99.90;;;;;;5019851;28;20026;-83
2021/12/04 05:18:58;;;;;;;3.83;1.80;;;4.30;99.90;;;;;;5017777;28;20246;-84
2021/12/04 05:21:24;;;;;;;2.63;1.63;;;4.40;99.90;;;;;;5025488;28;20022;-83
2021/12/04 05:23:54;;;;;;;3.23;1.90;;;4.40;99.90;;;;;;5025917;28;20094;-84
2021/12/04 05:26:26;;;;;;;5.13;2.30;;;4.40;99.90;;;;;;5031442;28;20021;-84
2021/12/04 05:28:54;;;;;;;3.30;1.95;;;4.40;99.90;;;;;;5003779;28;20144;-83
2021/12/04 05:31:20;;;;;;;3.70;2.40;;;4.40;99.90;;;;;;5022749;28;20425;-83
2021/12/04 05:33:47;;;;;;;4.63;2.10;;;4.40;99.90;;;;;;5021969;28;20470;-84
2021/12/04 05:36:12;;;;;;;5.47;2.50;;;4.40;99.90;;;;;;5029191;28;20026;-84
2021/12/04 05:38:38;;;;;;;4.37;2.43;;;4.40;99.90;;;;;;5016892;28;20037;-83
2021/12/04 05:41:05;;;;;;;2.90;2.20;;;4.30;99.90;;;;;;5021202;28;20025;-83
2021/12/04 05:43:31;;;;;;;5.57;2.10;;;4.30;99.90;;;;;;5032379;28;20104;-83
2021/12/04 05:46:22;;;;;;;4.17;2.40;;;4.30;99.90;;;;;;5019608;28;20366;-83
2021/12/04 05:49:23;;;;;;;4.80;2.40;;;4.40;99.90;;;;;;5029739;28;20088;-83
2021/12/04 05:51:51;;;;;;;4.87;2.40;;;4.40;99.90;;;;;;5011416;28;20030;-83
2021/12/04 05:56:45;;;;;;;2.90;2.07;;;4.40;99.90;;;;;;5007338;28;20018;-83
2021/12/04 05:59:11;;;;;;;4.00;2.40;;;4.40;99.90;;;;;;5003295;28;20369;-83
2021/12/04 06:01:36;;;;;;;3.63;2.20;;;4.40;99.90;;;;;;5006508;28;20029;-83
2021/12/04 06:04:02;;;;;;;3.27;2.30;;;4.40;99.90;;;;;;5005146;28;20023;-84
2021/12/04 06:06:28;;;;;;;4.20;2.43;;;4.40;99.90;;;;;;5004511;28;20414;-83
2021/12/04 06:08:54;;;;;;;4.30;2.67;;;4.50;99.90;;;;;;5018914;28;20032;-83
2021/12/04 06:11:20;;;;;;;4.30;2.23;;;4.40;99.90;;;;;;5025266;28;20127;-84
2021/12/04 06:13:46;;;;;;;4.67;2.60;;;4.40;99.90;;;;;;5024357;28;20022;-84
2021/12/04 06:16:13;;;;;;;3.60;2.37;;;4.40;99.90;;;;;;5034273;28;20488;-83
2021/12/04 06:18:38;;;;;;;5.37;2.53;;;4.40;99.90;;;;;;5016107;28;20592;-83
2021/12/04 06:23:49;;;;;;;5.20;2.60;;;4.50;99.90;;;;;;5026014;28;20048;-83
2021/12/04 06:26:15;;;;;;;3.47;2.40;;;4.40;99.90;;;;;;5030128;28;20026;-83
2021/12/04 06:28:41;;;;;;;3.83;2.57;;;4.40;99.90;;;;;;5016142;28;20055;-84
2021/12/04 06:31:08;;;;;;;4.10;2.40;;;4.40;99.90;;;;;;5015510;28;20013;-84
2021/12/04 06:33:34;;;;;;;6.07;2.97;;;4.40;99.90;;;;;;5022438;28;20601;-84
2021/12/04 06:36:00;;;;;;;4.93;2.80;;;4.40;99.90;;;;;;5026864;28;20525;-84
2021/12/04 06:38:26;;;;;;;6.33;2.80;;;4.50;99.90;;;;;;5016543;28;20038;-84
2021/12/04 06:40:52;;;;;;;4.77;2.90;;;4.40;99.90;;;;;;5027989;28;20026;-84
2021/12/04 06:43:18;;;;;;;6.00;2.90;;;4.40;99.90;;;;;;5021588;28;20494;-84
2021/12/04 06:45:48;;;;;;;5.47;2.90;;;4.40;99.90;;;;;;5021045;28;20022;-84
2021/12/04 06:48:23;;;;;;;3.57;2.57;;;4.50;99.90;;;;;;5028432;28;20516;-84
2021/12/04 06:51:09;;;;;;;5.37;3.20;;;4.50;99.90;;;;;;5000855;28;20076;-84
2021/12/04 06:56:08;;;;;;;6.00;3.00;;;4.50;99.90;;;;;;5028534;28;20079;-84
2021/12/04 06:58:35;;;;;;;5.23;3.20;;;4.50;99.90;;;;;;5016817;28;20084;-84
2021/12/04 07:01:01;;;;;;;5.77;3.30;;;4.50;99.90;;;;;;5015124;28;20033;-83
2021/12/04 07:03:27;;;;;;;5.00;2.83;;;4.60;99.90;;;;;;5023721;28;20022;-84
2021/12/04 07:05:53;;;;;;;5.50;3.10;;;4.50;99.90;;;;;;5026055;28;20071;-84
2021/12/04 07:08:18;;;;;;;5.07;3.27;;;4.50;99.90;;;;;;5035187;28;20025;-84
2021/12/04 07:10:44;;;;;;;5.80;3.70;;;4.50;99.90;;;;;;5019201;28;20137;-84
2021/12/04 07:13:12;;;;;;;5.40;3.33;;;4.50;99.90;;;;;;5029548;28;20017;-84
2021/12/04 07:15:38;;;;;;;6.27;3.57;;;4.50;99.90;;;;;;5027739;28;20095;-83
2021/12/04 07:18:04;;;;;;;5.77;3.40;;;4.50;99.90;;;;;;5022470;28;20070;-83
2021/12/04 07:20:30;;;;;;;6.50;3.50;;;4.50;99.90;;;;;;5034902;28;20454;-84
2021/12/04 07:22:56;;;;;;;6.63;3.47;;;4.60;99.90;;;;;;5031313;28;20476;-83
2021/12/04 07:25:22;;;;;;;6.23;3.40;;;4.60;99.90;;;;;;5016475;28;20462;-83
2021/12/04 07:27:50;;;;;;;6.20;3.70;;;4.60;99.90;;;;;;5028061;28;20213;-83
2021/12/04 07:30:17;;;;;;;5.53;3.43;;;4.60;99.90;;;;;;5021681;28;20070;-83
2021/12/04 07:32:42;;;;;;;6.27;3.80;;;4.60;99.90;;;;;;5033231;28;20033;-83
2021/12/04 07:35:08;;;;;;;5.53;3.40;;;4.70;99.90;;;;;;5023097;28;20018;-83
2021/12/04 07:37:34;;;;;;;6.43;3.90;;;4.60;99.90;;;;;;5025615;28;20526;-83
2021/12/04 07:40:00;;;;;;;6.27;3.73;;;4.70;99.90;;;;;;5029521;28;20063;-84
2021/12/04 07:42:26;;;;;;;6.60;3.63;;;4.70;99.90;;;;;;5035611;28;20417;-84
2021/12/04 07:44:51;;;;;;;6.43;3.73;;;4.60;99.90;;;;;;5020036;28;20026;-83
2021/12/04 07:47:17;;;;;;;7.80;4.80;;;4.60;99.90;;;;;;5028251;28;20060;-84
2021/12/04 07:49:43;;;;;;;6.80;3.53;;;4.70;99.90;;;;;;5026727;28;20022;-84
2021/12/04 07:52:10;;;;;;;9.10;4.20;;;4.80;99.90;;;;;;5021423;28;20022;-84
2021/12/04 07:54:36;;;;;;;8.73;4.87;;;4.70;99.90;;;;;;5032912;28;20013;-83
2021/12/04 07:57:03;;;;;;;7.63;4.23;;;4.70;99.90;;;;;;5018443;28;20021;-84
2021/12/04 07:59:29;;;;;;;6.40;3.93;;;4.70;99.90;;;;;;5019481;28;20025;-83
2021/12/04 08:01:56;;;;;;;8.57;4.60;;;4.80;99.90;;;;;;5020966;28;20036;-84
2021/12/04 08:04:23;;;;;;;8.43;4.20;;;4.80;99.90;;;;;;5018258;28;20028;-84
2021/12/04 08:06:49;;;;;;;7.93;4.13;;;4.80;99.90;;;;;;5031523;28;20076;-83
2021/12/04 08:09:15;;;;;;;7.13;4.27;;;4.80;99.90;;;;;;5021893;28;20145;-84
2021/12/04 08:11:41;;;;;;;7.83;4.50;;;4.90;99.90;;;;;;5023440;28;20061;-84
2021/12/04 08:14:06;;;;;;;9.77;4.73;;;4.90;99.90;;;;;;5029437;28;20477;-83
2021/12/04 08:16:32;;;;;;;8.87;4.07;;;4.90;99.90;;;;;;5018736;28;20504;-83
2021/12/04 08:18:59;;;;;;;7.47;4.33;;;4.90;99.90;;;;;;5029034;28;20022;-84
2021/12/04 08:21:25;;;;;;;7.03;4.10;;;4.80;99.90;;;;;;5023292;28;20017;-83
2021/12/04 08:23:51;;;;;;;7.13;3.97;;;4.90;99.90;;;;;;5021662;28;20045;-83
2021/12/04 08:26:17;;;;;;;8.13;4.63;;;4.90;99.90;;;;;;5015808;28;20421;-83
2021/12/04 08:28:43;;;;;;;6.90;4.23;;;4.90;99.90;;;;;;5030272;28;20073;-83
2021/12/04 08:31:09;;;;;;;8.40;4.80;;;5.00;99.90;;;;;;5011798;28;20025;-83
2021/12/04 08:33:35;;;;;;;7.17;3.87;;;5.00;99.90;;;;;;5023714;28;20021;-83
2021/12/04 08:36:03;;;;;;;10.57;4.50;;;5.00;99.90;;;;;;5027992;28;20025;-84
2021/12/04 08:38:30;;;;;;;8.30;4.37;;;5.00;99.90;;;;;;5018119;28;20042;-83
2021/12/04 08:40:55;;;;;;;6.23;3.60;;;5.00;99.90;;;;;;5034070;28;20055;-83
2021/12/04 08:43:21;;;;;;;7.67;4.20;;;5.10;99.90;;;;;;5026647;28;20037;-83
2021/12/04 08:45:47;;;;;;;10.07;4.87;;;5.10;99.90;;;;;;5026610;28;20029;-83
2021/12/04 08:48:13;;;;;;;6.63;3.40;;;5.10;99.90;;;;;;5019767;28;20036;-83
2021/12/04 08:50:40;;;;;;;7.87;3.87;;;5.20;99.90;;;;;;5030206;28;20049;-83
2021/12/04 08:53:07;;;;;;;8.47;4.10;;;5.20;99.90;;;;;;5020406;28;20024;-84
2021/12/04 08:55:36;;;;;;;7.37;3.80;;;5.20;99.90;;;;;;5024335;28;20017;-84
2021/12/04 08:58:02;;;;;;;7.37;3.80;;;5.20;99.90;;;;;;5028041;28;20022;-83
2021/12/04 09:00:40;;;;;;;6.43;3.83;;;5.20;99.90;;;;;;5016321;28;20450;-83
2021/12/04 09:03:08;;;;;;;6.40;3.67;;;5.20;99.90;;;;;;5027597;28;20507;-83
2021/12/04 09:05:36;;;;;;;7.97;4.30;;;5.20;99.90;;;;;;5024031;28;20454;-83
2021/12/04 09:08:04;;;;;;;7.47;4.37;;;5.20;99.90;;;;;;5020525;28;20018;-82
2021/12/04 09:10:30;;;;;;;7.57;4.17;;;5.30;99.90;;;;;;5015504;28;20054;-82
2021/12/04 09:12:56;;;;;;;7.33;4.10;;;5.20;99.90;;;;;;5029033;28;20014;-82
2021/12/04 09:15:24;;;;;;;7.90;4.00;;;5.30;99.90;;;;;;5022068;28;20450;-83
2021/12/04 09:17:50;;;;;;;8.97;4.43;;;5.30;99.90;;;;;;5020859;28;20060;-82
2021/12/04 09:20:17;;;;;;;7.40;4.40;;;5.30;99.90;;;;;;5013592;28;20474;-83
2021/12/04 09:22:46;;;;;;;8.90;4.17;;;5.30;99.90;;;;;;5029495;28;20018;-82
2021/12/04 09:25:17;;;;;;;8.37;4.07;;;5.30;99.90;;;;;;5014380;28;20026;-82
2021/12/04 09:33:33;;;;;;;6.67;3.73;;;5.50;99.90;;;;;;5017781;28;20017;-83
2021/12/04 10:33:13;;;;;;;5.93;3.50;;;6.00;99.90;;;;;;5008189;28;20029;-82
2021/12/04 10:35:39;;;;;;;8.50;4.40;;;6.10;99.90;;;;;;5012812;28;20030;-81
2021/12/04 10:38:08;;;;;;;8.10;4.33;;;6.10;99.90;;;;;;5022376;28;20079;-82
2021/12/04 10:40:40;;;;;;;6.50;3.97;;;6.10;99.90;;;;;;5023030;28;20084;-82
2021/12/04 10:43:12;;;;;;;6.40;3.57;;;6.20;99.90;;;;;;5003261;28;20092;-82
2021/12/04 10:45:45;;;;;;;5.90;3.83;;;6.20;99.90;;;;;;5012461;28;20025;-83
2021/12/04 10:48:18;;;;;;;6.10;4.30;;;6.20;99.90;;;;;;5016073;28;20041;-82
2021/12/04 10:51:18;;;;;;;6.70;4.10;;;6.30;99.90;;;;;;5015583;28;20160;-82
2021/12/04 10:53:37;;;;;;;8.67;4.43;;;6.20;99.90;;;;;;5013174;28;20034;-82
2021/12/04 11:01:44;;;;;;;11.60;6.20;;;6.30;99.90;;;;;;5008808;28;20076;-82
2021/12/04 11:04:27;;;;;;;9.23;5.63;;;6.30;99.90;;;;;;5016476;28;20344;-83
2021/12/04 11:45:14;;;;;;;9.20;5.40;;;6.80;99.90;;;;;;5003666;28;20049;-82
2021/12/04 11:47:43;;;;;;;11.73;5.47;;;6.80;99.90;;;;;;5010972;28;20029;-82
2021/12/04 11:50:23;;;;;;;10.63;4.87;;;6.80;99.90;;;;;;5006885;28;20076;-82
2021/12/04 11:52:54;;;;;;;9.40;5.27;;;6.80;99.90;;;;;;5002914;28;20349;-82
2021/12/04 11:55:23;;;;;;;7.77;5.23;;;6.80;99.90;;;;;;5008999;28;20030;-83
2021/12/04 11:57:50;;;;;;;10.93;5.73;;;6.90;99.90;;;;;;5008565;28;20290;-83
2021/12/04 12:00:42;;;;;;;12.20;5.53;;;6.80;99.90;;;;;;5005127;28;20152;-82
2021/12/04 12:03:15;;;;;;;8.35;4.75;;;6.90;99.90;;;;;;5008143;28;20055;-83
2021/12/04 12:05:52;;;;;;;7.73;4.50;;;6.90;99.90;;;;;;5009388;28;20026;-82
2021/12/04 12:08:38;;;;;;;6.90;3.97;;;6.90;99.90;;;;;;5020507;28;20026;-82
2021/12/04 12:11:07;;;;;;;5.90;3.70;;;6.90;99.90;;;;;;5009171;28;20046;-83
2021/12/04 12:13:37;;;;;;;5.93;3.50;;;6.90;99.90;;;;;;5009333;28;20022;-82
2021/12/04 12:16:12;;;;;;;5.10;3.13;;;6.90;99.90;;;;;;5010542;28;20026;-83
2021/12/04 12:18:59;;;;;;;6.80;3.60;;;7.00;99.90;;;;;;5010383;28;20506;-82
2021/12/04 12:21:32;;;;;;;5.93;3.30;;;7.10;99.90;;;;;;5006499;28;20054;-82
2021/12/04 12:38:40;;;;;;;4.57;2.50;;;7.40;99.90;;;;;;5011346;28;20049;-83
2021/12/04 12:41:16;;;;;;;2.65;1.80;;;7.50;99.90;;;;;;5009267;28;20455;-83
2021/12/04 12:43:48;;;;;;;3.38;1.65;;;7.70;99.90;;;;;;5008685;28;20994;-83
2021/12/04 12:46:14;;;;;;;;;;;7.80;99.90;;;;;;5011019;28;20026;-83
2021/12/04 12:48:47;;;;;;;4.35;1.52;;;7.90;99.90;;;;;;5029135;28;19931;-83
2021/12/04 12:51:13;;;;;;;1.70;1.20;;;8.20;99.90;;;;;;5019080;28;20049;-82
2021/12/04 12:53:45;;;;;;;0.70;0.60;;;8.40;99.90;;;;;;5020988;28;20140;-82
2021/12/04 12:56:14;;;;;;;0.80;0.40;;;8.70;99.90;;;;;;5012050;28;20050;-83
2021/12/04 12:58:44;;;;;;;0.65;0.32;;;8.80;99.90;;;;;;5012428;28;20085;-82
2021/12/04 13:13:28;;;;;;;0.40;0.30;;;9.10;99.90;;;;;;5009503;28;20040;-84
2021/12/04 13:16:00;;;;;;;1.38;0.20;;;9.20;99.90;;;;;;5020047;28;20041;-82
2021/12/04 13:18:27;;;;;;;0.20;0.20;;;9.20;99.90;;;;;;5016670;28;20030;-82
2021/12/04 13:20:58;;;;;;;0.50;0.28;;;9.30;99.90;;;;;;5028161;28;20022;-82
2021/12/04 13:23:24;;;;;;;0.50;0.30;;;9.30;99.90;;;;;;5008775;28;20053;-82
2021/12/04 13:25:57;;;;;;;0.70;0.20;;;9.40;99.90;;;;;;5027808;28;20071;-82
2021/12/04 13:28:25;;;;;;;0.77;0.25;;;9.40;99.90;;;;;;5014917;28;20041;-82
2021/12/04 13:30:51;;;;;;;0.60;0.30;;;9.50;99.90;;;;;;5020559;28;20052;-82
2021/12/04 13:33:17;;;;;;;0.50;0.20;;;9.50;99.90;;;;;;5022950;28;20044;-83
2021/12/04 13:35:46;;;;;;;1.17;0.30;;;9.50;99.90;;;;;;5003417;28;20395;-82
2021/12/04 13:38:14;;;;;;;1.05;0.30;;;9.50;99.90;;;;;;5022198;28;20041;-83
2021/12/04 13:40:42;;;;;;;1.13;0.43;;;9.60;99.90;;;;;;5021501;28;20056;-82
2021/12/04 13:43:13;;;;;;;0.65;0.30;;;9.60;99.90;;;;;;5005250;28;20017;-83
2021/12/04 13:45:39;;;;;;;1.95;0.40;;;9.60;99.90;;;;;;5014871;28;20203;-82
2021/12/04 13:48:05;;;;;;;0.60;0.22;;;9.60;99.90;;;;;;5025961;28;20108;-82
2021/12/04 13:53:12;;;;;;;0.22;0.20;;;9.60;99.90;;;;;;5032106;28;20370;-85
2021/12/04 13:55:44;;;;;;;0.22;0.20;;;9.70;99.90;;;;;;5019753;28;20039;-83
2021/12/04 13:58:09;;;;;;;0.73;0.52;;;9.70;99.90;;;;;;5027107;28;20033;-82
2021/12/04 14:00:36;;;;;;;2.28;0.30;;;9.70;99.90;;;;;;5012075;28;20407;-84
2021/12/04 14:03:02;;;;;;;0.40;0.20;;;9.70;99.90;;;;;;5010814;28;20026;-84
2021/12/04 14:05:29;;;;;;;1.58;0.30;;;9.70;99.90;;;;;;5019928;28;20021;-83
2021/12/04 14:07:58;;;;;;;0.50;0.30;;;9.70;99.90;;;;;;5016972;28;20450;-83
2021/12/04 14:10:30;;;;;;;1.83;0.38;;;9.70;99.90;;;;;;5026374;28;20060;-84
2021/12/04 14:12:57;;;;;;;;;;;9.70;99.90;;;;;;5012028;28;20036;-84
2021/12/04 14:15:24;;;;;;;0.40;0.30;;;9.70;99.90;;;;;;5019711;28;19912;-86
2021/12/04 14:17:58;;;;;;;0.52;0.20;;;9.70;99.90;;;;;;5014650;28;20041;-84
2021/12/04 14:20:24;;;;;;;0.63;0.20;;;9.70;99.90;;;;;;5004253;28;20035;-83
2021/12/04 14:22:54;;;;;;;0.30;0.30;;;9.70;99.90;;;;;;5007558;28;20053;-83
2021/12/04 14:25:22;;;;;;;0.82;0.40;;;9.70;99.90;;;;;;5005164;28;20030;-82
2021/12/04 14:27:49;;;;;;;0.47;0.30;;;9.70;99.90;;;;;;5003730;28;20052;-83
2021/12/04 14:30:18;;;;;;;1.88;0.40;;;9.70;99.90;;;;;;5001048;28;20027;-82
2021/12/04 14:32:50;;;;;;;1.02;0.50;;;9.70;99.90;;;;;;5001568;28;20033;-82
2021/12/04 14:35:17;;;;;;;1.65;0.40;;;9.70;99.90;;;;;;4999927;28;20025;-82
2021/12/04 14:37:47;;;;;;;1.23;0.30;;;9.70;99.90;;;;;;5007469;28;20533;-82
2021/12/04 14:40:19;;;;;;;0.77;0.28;;;9.70;99.90;;;;;;5005735;28;20037;-82
2021/12/04 14:42:45;;;;;;;0.30;0.20;;;9.70;99.90;;;;;;5001320;28;20042;-82
2021/12/04 14:45:24;;;;;;;1.10;0.20;;;9.70;99.90;;;;;;5013830;28;20034;-82
2021/12/04 14:47:56;;;;;;;0.73;0.30;;;9.70;99.90;;;;;;5008751;28;20189;-82
2021/12/04 14:50:23;;;;;;;1.00;0.28;;;9.70;99.90;;;;;;5005503;28;20125;-82
2021/12/04 14:52:52;;;;;;;0.55;0.32;;;9.70;99.90;;;;;;5004973;28;20293;-82
2021/12/04 14:55:23;;;;;;;0.80;0.43;;;9.70;99.90;;;;;;5004281;28;20049;-82
2021/12/04 14:57:49;;;;;;;0.82;0.30;;;9.70;99.90;;;;;;5002979;28;20053;-82
2021/12/04 15:00:28;;;;;;;1.92;0.30;;;9.70;99.90;;;;;;5006228;28;20065;-82
2021/12/04 15:03:08;;;;;;;0.50;0.40;;;9.70;99.90;;;;;;5002559;28;20365;-82
2021/12/04 15:05:50;;;;;;;1.27;0.50;;;9.70;99.90;;;;;;5009609;28;20125;-81
2021/12/04 15:08:21;;;;;;;1.85;0.30;;;9.70;99.90;;;;;;5013741;28;20463;-82
2021/12/04 15:10:58;;;;;;;1.85;0.30;;;9.70;99.90;;;;;;5004589;28;20053;-82
2021/12/04 15:13:29;;;;;;;0.40;0.30;;;9.70;99.90;;;;;;5008389;28;20032;-82
2021/12/04 15:16:00;;;;;;;0.70;0.50;;;9.70;99.90;;;;;;5015855;28;20528;-82
2021/12/04 15:18:31;;;;;;;0.70;0.50;;;9.80;99.90;;;;;;5026168;28;20030;-82
2021/12/04 15:21:07;;;;;;;0.65;0.50;;;9.80;99.90;;;;;;5024444;28;20459;-81
2021/12/04 15:23:36;;;;;;;0.60;0.22;;;9.80;99.90;;;;;;5018960;28;20033;-82
2021/12/04 15:26:28;;;;;;;1.08;0.25;;;9.90;99.90;;;;;;5026511;28;20481;-82
2021/12/04 15:28:54;;;;;;;0.52;0.20;;;9.80;99.90;;;;;;5000044;28;20042;-82
2021/12/04 15:31:23;;;;;;;1.40;0.40;;;9.80;99.90;;;;;;5024089;28;20120;-82
2021/12/04 15:33:52;;;;;;;1.17;0.38;;;9.80;99.90;;;;;;5020990;28;20036;-81
2021/12/04 15:36:25;;;;;;;1.13;0.38;;;9.80;99.90;;;;;;5030359;28;20389;-81
2021/12/04 15:38:54;;;;;;;1.15;0.40;;;9.80;99.90;;;;;;5000670;28;20048;-82
2021/12/04 15:41:43;;;;;;;0.55;0.43;;;9.70;99.90;;;;;;5025424;28;20026;-81
2021/12/04 15:54:39;;;;;;;0.80;0.50;;;9.70;99.90;;;;;;5017161;28;20505;-82
2021/12/04 15:57:11;;;;;;;;;;;9.70;99.90;;;;;;5033825;28;20482;-82
2021/12/04 15:59:44;;;;;;;0.82;0.30;;;9.70;99.90;;;;;;5021232;28;19901;-82
2021/12/04 16:02:13;;;;;;;0.40;0.30;;;9.70;99.90;;;;;;5026932;28;20033;-82
2021/12/04 16:04:40;;;;;;;1.13;0.38;;;9.60;99.90;;;;;;5011997;28;20026;-82
2021/12/04 16:07:06;;;;;;;2.13;0.40;;;9.60;99.90;;;;;;5020298;28;20021;-83
2021/12/04 16:09:38;;;;;;;1.58;0.45;;;9.60;99.90;;;;;;5022051;28;20057;-82
2021/12/04 16:12:04;;;;;;;;;;;9.60;99.90;;;;;;5004092;28;20029;-82
2021/12/04 16:14:37;;;;;;;1.10;0.40;;;9.70;99.90;;;;;;5012231;28;20064;-82
2021/12/04 16:17:05;;;;;;;0.75;0.45;;;9.60;99.90;;;;;;5017947;28;20018;-82
2021/12/04 16:19:33;;;;;;;0.40;0.30;;;9.60;99.90;;;;;;5022510;28;20034;-82
2021/12/04 16:22:02;;;;;;;1.38;0.43;;;9.60;99.90;;;;;;5026575;28;20017;-82
2021/12/04 16:24:29;;;;;;;1.02;0.28;;;9.60;99.90;;;;;;5015365;28;20018;-82
2021/12/04 16:27:01;;;;;;;0.30;0.20;;;9.60;99.90;;;;;;5015944;28;20021;-83
2021/12/04 16:29:31;;;;;;;;;;;9.60;99.90;;;;;;5023532;28;20033;-82
2021/12/04 16:40:11;;;;;;;1.45;0.40;;;9.50;99.90;;;;;;5026613;28;20033;-83
2021/12/04 16:42:38;;;;;;;0.55;0.20;;;9.40;99.90;;;;;;5015043;28;20038;-82
2021/12/04 16:45:06;;;;;;;0.68;0.43;;;9.40;99.90;;;;;;5028100;28;20461;-82